createdAt,value
2022-11-20T00:00:29.784Z,257.82
2022-11-20T00:01:29.792Z,259.66
2022-11-20T00:02:29.933Z,262.78
2022-11-20T00:03:29.759Z,256.81
2022-11-20T00:04:29.748Z,257.01
2022-11-20T00:05:29.739Z,257.82
2022-11-20T00:06:29.718Z,259.04
2022-11-20T00:07:29.807Z,257.21
2022-11-20T00:08:29.703Z,256.81
2022-11-20T00:09:29.699Z,262.36
2022-11-20T00:10:29.689Z,256.61
2022-11-20T00:11:29.682Z,254.82
2022-11-20T00:12:29.663Z,260.27
2022-11-20T00:13:29.822Z,260.89
2022-11-20T00:14:29.646Z,255.21
2022-11-20T00:15:29.633Z,258.84
2022-11-20T00:16:29.615Z,257.62
2022-11-20T00:17:29.615Z,253.24
2022-11-20T00:18:29.772Z,250.92
2022-11-20T00:19:29.591Z,256.41
2022-11-20T00:20:29.582Z,251.69
2022-11-20T00:21:29.637Z,251.50
2022-11-20T00:22:29.553Z,249.96
2022-11-20T00:23:29.552Z,249.77
2022-11-20T00:24:29.895Z,249.77
2022-11-20T00:25:29.528Z,247.51
2022-11-20T00:26:29.526Z,249.39
2022-11-20T00:27:29.514Z,249.01
2022-11-20T00:28:29.527Z,249.39
2022-11-20T00:29:29.481Z,253.63
2022-11-20T00:30:29.654Z,249.96
2022-11-20T00:31:29.466Z,251.11
2022-11-20T00:32:29.471Z,253.44
2022-11-20T00:33:29.443Z,249.58
2022-11-20T00:34:29.435Z,249.39
2022-11-20T00:35:29.652Z,250.54
2022-11-20T00:36:29.407Z,250.35
2022-11-20T00:37:29.394Z,253.44
2022-11-20T00:38:29.389Z,254.62
2022-11-20T00:39:29.378Z,251.30
2022-11-20T00:40:29.380Z,251.30
2022-11-20T00:41:29.513Z,252.27
2022-11-20T00:42:29.341Z,251.50
2022-11-20T00:43:29.330Z,251.69
2022-11-20T00:44:29.335Z,254.23
2022-11-20T00:45:29.364Z,253.63
2022-11-20T00:46:29.312Z,257.21
2022-11-20T00:47:29.469Z,252.66
2022-11-20T00:48:29.281Z,253.83
2022-11-20T00:49:29.274Z,255.01
2022-11-20T00:50:29.258Z,253.83
2022-11-20T00:51:29.286Z,252.85
2022-11-20T00:52:29.229Z,254.42
2022-11-20T00:53:29.411Z,254.03
2022-11-20T00:54:29.228Z,254.23
2022-11-20T00:55:29.200Z,255.61
2022-11-20T00:56:29.217Z,256.01
2022-11-20T00:57:29.187Z,256.01
2022-11-20T00:58:29.179Z,256.61
2022-11-20T00:59:29.423Z,257.01
2022-11-20T01:00:29.206Z,258.02
2022-11-20T01:01:29.177Z,260.07
2022-11-20T01:02:29.127Z,259.66
2022-11-20T01:03:29.129Z,263.20
2022-11-20T01:04:29.172Z,261.10
2022-11-20T01:05:29.396Z,260.89
2022-11-20T01:06:29.155Z,260.07
2022-11-20T01:07:29.314Z,260.89
2022-11-20T01:08:29.104Z,260.48
2022-11-20T01:09:29.056Z,263.83
2022-11-20T01:10:29.044Z,260.27
2022-11-20T01:11:29.032Z,259.25
2022-11-20T01:12:29.207Z,260.27
2022-11-20T01:13:29.024Z,258.23
2022-11-20T01:14:29.054Z,258.23
2022-11-20T01:15:29.011Z,260.69
2022-11-20T01:16:29.004Z,262.99
2022-11-20T01:17:28.982Z,258.02
2022-11-20T01:18:29.155Z,257.82
2022-11-20T01:19:28.972Z,259.25
2022-11-20T01:20:28.952Z,258.23
2022-11-20T01:21:28.945Z,256.81
2022-11-20T01:22:28.949Z,257.42
2022-11-20T01:23:28.941Z,256.21
2022-11-20T01:24:29.092Z,256.61
2022-11-20T01:25:28.884Z,256.81
2022-11-20T01:26:28.883Z,256.61
2022-11-20T01:27:28.862Z,256.81
2022-11-20T01:28:28.856Z,257.21
2022-11-20T01:29:28.845Z,256.01
2022-11-20T01:30:28.997Z,255.81
2022-11-20T01:31:28.829Z,254.82
2022-11-20T01:32:28.817Z,253.83
2022-11-20T01:33:28.810Z,255.21
2022-11-20T01:34:28.792Z,254.62
2022-11-20T01:35:29.017Z,254.82
2022-11-20T01:36:28.797Z,253.83
2022-11-20T01:37:28.767Z,253.63
2022-11-20T01:38:28.751Z,253.63
2022-11-20T01:39:28.739Z,254.23
2022-11-20T01:40:28.735Z,256.21
2022-11-20T01:41:28.897Z,255.81
2022-11-20T01:42:28.719Z,256.41
2022-11-20T01:43:28.693Z,258.23
2022-11-20T01:44:28.689Z,259.66
2022-11-20T01:45:28.681Z,260.69
2022-11-20T01:46:28.663Z,262.36
2022-11-20T01:47:28.813Z,262.57
2022-11-20T01:48:28.645Z,261.52
2022-11-20T01:49:28.639Z,263.41
2022-11-20T01:50:28.621Z,262.36
2022-11-20T01:51:28.632Z,262.57
2022-11-20T01:52:28.607Z,263.83
2022-11-20T01:53:28.768Z,264.26
2022-11-20T01:54:28.581Z,266.19
2022-11-20T01:55:28.569Z,264.90
2022-11-20T01:56:28.569Z,265.11
2022-11-20T01:57:28.540Z,265.76
2022-11-20T01:58:28.546Z,267.27
2022-11-20T01:59:28.690Z,268.58
2022-11-20T02:00:28.515Z,269.47
2022-11-20T02:01:28.580Z,269.02
2022-11-20T02:02:28.493Z,271.25
2022-11-20T02:03:28.488Z,270.80
2022-11-20T02:04:28.638Z,269.02
2022-11-20T02:05:28.480Z,269.47
2022-11-20T02:06:28.509Z,269.24
2022-11-20T02:07:28.478Z,270.80
2022-11-20T02:08:28.438Z,269.47
2022-11-20T02:09:28.415Z,271.70
2022-11-20T02:10:28.757Z,270.58
2022-11-20T02:11:28.383Z,272.60
2022-11-20T02:12:28.394Z,272.60
2022-11-20T02:13:28.390Z,273.28
2022-11-20T02:14:28.363Z,273.05
2022-11-20T02:15:30.489Z,271.25
2022-11-20T02:16:28.492Z,273.05
2022-11-20T02:17:28.343Z,274.65
2022-11-20T02:18:28.319Z,274.42
2022-11-20T02:19:28.484Z,273.51
2022-11-20T02:20:28.298Z,274.20
2022-11-20T02:21:28.462Z,273.51
2022-11-20T02:22:28.276Z,273.97
2022-11-20T02:23:28.267Z,273.05
2022-11-20T02:24:28.261Z,273.74
2022-11-20T02:25:28.245Z,272.15
2022-11-20T02:26:28.229Z,274.42
2022-11-20T02:27:28.408Z,276.04
2022-11-20T02:28:28.226Z,275.58
2022-11-20T02:29:28.207Z,275.81
2022-11-20T02:30:28.192Z,277.44
2022-11-20T02:31:28.187Z,276.51
2022-11-20T02:32:28.360Z,278.86
2022-11-20T02:33:28.158Z,278.62
2022-11-20T02:34:28.151Z,279.09
2022-11-20T02:35:28.137Z,280.05
2022-11-20T02:36:28.117Z,281.49
2022-11-20T02:37:28.120Z,282.21
2022-11-20T02:38:28.281Z,280.76
2022-11-20T02:39:28.094Z,282.70
2022-11-20T02:40:28.108Z,280.52
2022-11-20T02:41:28.069Z,283.43
2022-11-20T02:42:28.067Z,283.19
2022-11-20T02:43:28.232Z,282.70
2022-11-20T02:44:28.040Z,285.16
2022-11-20T02:45:28.047Z,283.68
2022-11-20T02:46:28.028Z,282.94
2022-11-20T02:47:28.014Z,283.68
2022-11-20T02:48:30.220Z,282.70
2022-11-20T02:49:29.217Z,285.40
2022-11-20T02:50:27.986Z,286.15
2022-11-20T02:51:27.966Z,284.17
2022-11-20T02:52:27.961Z,283.68
2022-11-20T02:53:27.945Z,282.46
2022-11-20T02:54:27.935Z,283.43
2022-11-20T02:55:28.094Z,283.43
2022-11-20T02:56:27.919Z,282.94
2022-11-20T02:57:27.909Z,282.46
2022-11-20T02:58:27.901Z,281.25
2022-11-20T02:59:27.904Z,281.97
2022-11-20T03:00:27.925Z,283.68
2022-11-20T03:01:28.215Z,282.46
2022-11-20T03:02:27.852Z,280.52
2022-11-20T03:03:27.843Z,282.46
2022-11-20T03:04:27.830Z,280.76
2022-11-20T03:05:27.831Z,280.05
2022-11-20T03:06:27.972Z,281.49
2022-11-20T03:07:27.851Z,278.86
2022-11-20T03:08:27.795Z,278.62
2022-11-20T03:09:27.781Z,279.57
2022-11-20T03:10:28.011Z,277.67
2022-11-20T03:11:27.760Z,277.44
2022-11-20T03:12:27.753Z,275.58
2022-11-20T03:13:27.732Z,275.58
2022-11-20T03:14:27.730Z,275.35
2022-11-20T03:15:27.722Z,274.42
2022-11-20T03:16:28.036Z,275.11
2022-11-20T03:17:27.693Z,273.51
2022-11-20T03:18:27.712Z,272.60
2022-11-20T03:19:27.677Z,272.37
2022-11-20T03:20:27.660Z,272.60
2022-11-20T03:21:27.650Z,270.80
2022-11-20T03:22:27.808Z,269.69
2022-11-20T03:23:27.638Z,270.35
2022-11-20T03:24:27.623Z,268.58
2022-11-20T03:25:27.608Z,267.27
2022-11-20T03:26:27.611Z,267.49
2022-11-20T03:27:27.582Z,267.49
2022-11-20T03:28:27.736Z,265.54
2022-11-20T03:29:27.566Z,266.40
2022-11-20T03:30:30.505Z,265.76
2022-11-20T03:31:27.544Z,265.11
2022-11-20T03:32:27.704Z,264.68
2022-11-20T03:33:27.530Z,263.83
2022-11-20T03:34:27.516Z,263.83
2022-11-20T03:35:27.696Z,263.41
2022-11-20T03:36:27.498Z,262.57
2022-11-20T03:37:27.489Z,262.15
2022-11-20T03:38:27.475Z,262.15
2022-11-20T03:39:27.466Z,262.15
2022-11-20T03:40:27.451Z,260.27
2022-11-20T03:41:27.622Z,261.94
2022-11-20T03:42:27.756Z,259.25
2022-11-20T03:43:27.419Z,260.48
2022-11-20T03:44:27.405Z,260.69
2022-11-20T03:45:27.419Z,261.52
2022-11-20T03:46:27.393Z,260.48
2022-11-20T03:47:27.381Z,260.07
2022-11-20T03:48:27.551Z,259.66
2022-11-20T03:49:27.357Z,259.04
2022-11-20T03:50:27.350Z,260.89
2022-11-20T03:51:27.343Z,261.31
2022-11-20T03:52:27.320Z,262.36
2022-11-20T03:53:27.321Z,260.48
2022-11-20T03:54:27.515Z,261.10
2022-11-20T03:55:27.301Z,262.36
2022-11-20T03:56:27.283Z,262.78
2022-11-20T03:57:27.332Z,263.83
2022-11-20T03:58:27.268Z,266.40
2022-11-20T03:59:27.422Z,265.97
2022-11-20T04:00:27.616Z,269.91
2022-11-20T04:01:27.304Z,271.47
2022-11-20T04:02:27.219Z,272.83
2022-11-20T04:03:27.208Z,273.74
2022-11-20T04:04:27.212Z,275.58
2022-11-20T04:05:27.202Z,276.04
2022-11-20T04:06:27.348Z,279.09
2022-11-20T04:07:27.263Z,280.05
2022-11-20T04:08:27.154Z,279.57
2022-11-20T04:09:27.153Z,280.52
2022-11-20T04:10:27.135Z,280.76
2022-11-20T04:11:27.297Z,281.49
2022-11-20T04:12:27.106Z,282.46
2022-11-20T04:13:27.113Z,284.66
2022-11-20T04:14:27.096Z,284.91
2022-11-20T04:15:27.079Z,285.40
2022-11-20T04:16:27.246Z,287.40
2022-11-20T04:17:27.068Z,285.16
2022-11-20T04:18:27.045Z,285.90
2022-11-20T04:19:27.030Z,287.40
2022-11-20T04:20:27.036Z,286.90
2022-11-20T04:21:27.275Z,286.90
2022-11-20T04:22:27.027Z,287.91
2022-11-20T04:23:28.795Z,284.66
2022-11-20T04:24:26.999Z,286.90
2022-11-20T04:25:26.974Z,288.42
2022-11-20T04:26:26.976Z,288.42
2022-11-20T04:27:27.124Z,289.69
2022-11-20T04:28:26.951Z,289.43
2022-11-20T04:29:26.944Z,288.16
2022-11-20T04:30:26.931Z,288.67
2022-11-20T04:31:26.922Z,288.42
2022-11-20T04:32:27.276Z,290.46
2022-11-20T04:33:28.957Z,287.40
2022-11-20T04:34:26.883Z,287.40
2022-11-20T04:35:26.874Z,286.90
2022-11-20T04:36:26.860Z,287.91
2022-11-20T04:37:26.851Z,287.66
2022-11-20T04:38:27.001Z,286.40
2022-11-20T04:39:26.831Z,286.15
2022-11-20T04:40:26.825Z,284.66
2022-11-20T04:41:26.823Z,286.65
2022-11-20T04:42:26.790Z,285.16
2022-11-20T04:43:27.027Z,285.65
2022-11-20T04:44:26.781Z,286.15
2022-11-20T04:45:26.770Z,286.40
2022-11-20T04:46:26.764Z,285.90
2022-11-20T04:47:26.756Z,284.91
2022-11-20T04:48:26.752Z,284.17
2022-11-20T04:49:27.013Z,283.92
2022-11-20T04:50:26.722Z,283.92
2022-11-20T04:51:26.707Z,283.68
2022-11-20T04:52:26.698Z,283.92
2022-11-20T04:53:26.694Z,283.19
2022-11-20T04:54:26.670Z,285.16
2022-11-20T04:55:26.823Z,283.19
2022-11-20T04:56:27.001Z,284.42
2022-11-20T04:57:26.640Z,281.97
2022-11-20T04:58:26.634Z,284.42
2022-11-20T04:59:26.626Z,282.46
2022-11-20T05:00:26.620Z,281.25
2022-11-20T05:01:26.658Z,281.25
2022-11-20T05:02:26.802Z,282.21
2022-11-20T05:03:26.574Z,281.01
2022-11-20T05:04:26.589Z,282.46
2022-11-20T05:05:26.556Z,283.19
2022-11-20T05:06:26.553Z,283.68
2022-11-20T05:07:26.586Z,282.70
2022-11-20T05:08:26.684Z,282.70
2022-11-20T05:09:26.515Z,283.19
2022-11-20T05:10:26.510Z,282.94
2022-11-20T05:11:26.506Z,282.94
2022-11-20T05:12:26.492Z,284.42
2022-11-20T05:13:26.633Z,283.43
2022-11-20T05:14:26.631Z,281.49
2022-11-20T05:15:26.455Z,283.68
2022-11-20T05:16:26.450Z,282.46
2022-11-20T05:17:26.432Z,282.46
2022-11-20T05:18:26.427Z,282.21
2022-11-20T05:19:26.581Z,283.68
2022-11-20T05:20:26.403Z,281.97
2022-11-20T05:21:26.396Z,283.68
2022-11-20T05:22:26.383Z,283.92
2022-11-20T05:23:26.371Z,283.92
2022-11-20T05:24:26.531Z,282.94
2022-11-20T05:25:26.363Z,283.19
2022-11-20T05:26:26.342Z,282.46
2022-11-20T05:27:26.340Z,282.94
2022-11-20T05:28:26.323Z,283.68
2022-11-20T05:29:26.314Z,282.94
2022-11-20T05:30:26.517Z,283.92
2022-11-20T05:31:27.978Z,281.73
2022-11-20T05:32:26.287Z,283.43
2022-11-20T05:33:26.280Z,281.73
2022-11-20T05:34:26.304Z,281.49
2022-11-20T05:35:27.938Z,280.76
2022-11-20T05:36:26.743Z,278.86
2022-11-20T05:37:26.234Z,278.38
2022-11-20T05:38:26.220Z,279.09
2022-11-20T05:39:26.295Z,280.05
2022-11-20T05:40:26.198Z,279.09
2022-11-20T05:41:26.190Z,276.97
2022-11-20T05:42:26.331Z,278.15
2022-11-20T05:43:26.172Z,275.81
2022-11-20T05:44:26.157Z,277.67
2022-11-20T05:45:26.140Z,275.35
2022-11-20T05:46:28.768Z,277.21
2022-11-20T05:47:26.123Z,274.88
2022-11-20T05:48:26.103Z,274.20
2022-11-20T05:49:26.094Z,272.60
2022-11-20T05:50:26.120Z,274.88
2022-11-20T05:51:26.083Z,272.60
2022-11-20T05:52:26.234Z,272.83
2022-11-20T05:53:27.721Z,270.35
2022-11-20T05:54:26.041Z,270.35
2022-11-20T05:55:26.038Z,269.24
2022-11-20T05:56:26.057Z,267.71
2022-11-20T05:57:26.176Z,267.71
2022-11-20T05:58:26.003Z,265.33
2022-11-20T05:59:25.991Z,265.54
2022-11-20T06:00:25.982Z,264.47
2022-11-20T06:01:25.985Z,264.26
2022-11-20T06:02:26.179Z,263.62
2022-11-20T06:03:25.955Z,263.41
2022-11-20T06:04:27.737Z,264.26
2022-11-20T06:05:26.895Z,265.33
2022-11-20T06:06:25.929Z,263.83
2022-11-20T06:07:26.895Z,264.26
2022-11-20T06:08:26.070Z,264.68
2022-11-20T06:09:25.918Z,265.33
2022-11-20T06:10:25.872Z,267.49
2022-11-20T06:11:25.889Z,267.71
2022-11-20T06:12:25.878Z,268.14
2022-11-20T06:13:25.862Z,267.49
2022-11-20T06:14:26.081Z,269.47
2022-11-20T06:15:25.829Z,268.36
2022-11-20T06:16:25.829Z,268.80
2022-11-20T06:17:25.801Z,270.13
2022-11-20T06:18:25.803Z,268.36
2022-11-20T06:19:25.782Z,269.02
2022-11-20T06:20:25.936Z,269.24
2022-11-20T06:21:25.773Z,269.91
2022-11-20T06:22:25.763Z,269.69
2022-11-20T06:23:25.746Z,270.35
2022-11-20T06:24:25.737Z,271.25
2022-11-20T06:25:25.892Z,270.80
2022-11-20T06:26:25.875Z,271.02
2022-11-20T06:27:25.709Z,271.25
2022-11-20T06:28:25.690Z,271.92
2022-11-20T06:29:28.859Z,273.51
2022-11-20T06:30:26.844Z,272.37
2022-11-20T06:31:25.663Z,274.42
2022-11-20T06:32:25.657Z,276.74
2022-11-20T06:33:25.636Z,275.35
2022-11-20T06:34:25.636Z,276.74
2022-11-20T06:35:25.626Z,278.62
2022-11-20T06:36:25.777Z,278.86
2022-11-20T06:37:25.600Z,278.86
2022-11-20T06:38:25.584Z,279.81
2022-11-20T06:39:25.583Z,281.73
2022-11-20T06:40:25.569Z,281.73
2022-11-20T06:41:25.553Z,281.49
2022-11-20T06:42:25.765Z,282.70
2022-11-20T06:43:25.535Z,283.92
2022-11-20T06:44:25.524Z,285.16
2022-11-20T06:45:25.529Z,284.17
2022-11-20T06:46:25.506Z,284.42
2022-11-20T06:47:25.491Z,284.42
2022-11-20T06:48:25.714Z,286.90
2022-11-20T06:49:25.578Z,286.40
2022-11-20T06:50:25.461Z,287.40
2022-11-20T06:51:25.451Z,286.15
2022-11-20T06:52:25.466Z,287.66
2022-11-20T06:53:25.592Z,288.42
2022-11-20T06:54:25.433Z,287.40
2022-11-20T06:55:25.410Z,288.92
2022-11-20T06:56:25.412Z,287.91
2022-11-20T06:57:25.426Z,284.91
2022-11-20T06:58:25.389Z,285.16
2022-11-20T06:59:25.710Z,283.92
2022-11-20T07:00:25.359Z,284.66
2022-11-20T07:01:25.408Z,283.92
2022-11-20T07:02:25.360Z,285.40
2022-11-20T07:03:25.338Z,284.42
2022-11-20T07:04:25.327Z,287.15
2022-11-20T07:05:25.469Z,287.15
2022-11-20T07:06:25.308Z,288.67
2022-11-20T07:07:25.346Z,289.18
2022-11-20T07:08:25.284Z,290.97
2022-11-20T07:09:25.529Z,290.71
2022-11-20T07:10:25.416Z,293.58
2022-11-20T07:11:25.320Z,292.53
2022-11-20T07:12:25.256Z,294.10
2022-11-20T07:13:25.316Z,295.16
2022-11-20T07:14:25.223Z,295.43
2022-11-20T07:15:25.237Z,298.38
2022-11-20T07:16:25.359Z,299.20
2022-11-20T07:17:25.183Z,300.02
2022-11-20T07:18:25.222Z,301.67
2022-11-20T07:19:25.232Z,300.57
2022-11-20T07:20:25.174Z,301.95
2022-11-20T07:21:25.178Z,301.67
2022-11-20T07:22:25.284Z,303.07
2022-11-20T07:23:25.150Z,302.23
2022-11-20T07:24:25.104Z,303.63
2022-11-20T07:25:25.096Z,304.47
2022-11-20T07:26:25.128Z,303.91
2022-11-20T07:29:42.199Z,365.12
2022-11-20T07:30:42.009Z,349.19
2022-11-20T07:31:41.990Z,340.49
2022-11-20T07:32:41.988Z,333.57
2022-11-20T07:33:41.982Z,328.23
2022-11-20T07:34:42.000Z,325.62
2022-11-20T07:35:42.161Z,322.42
2022-11-20T07:36:41.950Z,320.85
2022-11-20T07:37:41.961Z,322.11
2022-11-20T07:38:41.931Z,318.36
2022-11-20T07:39:41.924Z,321.16
2022-11-20T07:40:41.906Z,318.98
2022-11-20T07:41:42.051Z,320.54
2022-11-20T07:42:41.884Z,319.91
2022-11-20T07:43:41.997Z,319.60
2022-11-20T07:44:41.860Z,320.85
2022-11-20T07:45:41.855Z,320.85
2022-11-20T07:46:42.008Z,320.54
2022-11-20T07:47:41.835Z,321.48
2022-11-20T07:48:41.825Z,322.74
2022-11-20T07:49:41.829Z,322.42
2022-11-20T07:50:41.800Z,323.06
2022-11-20T07:51:41.802Z,324.02
2022-11-20T07:52:41.999Z,324.02
2022-11-20T07:53:41.771Z,322.42
2022-11-20T07:54:41.788Z,322.42
2022-11-20T07:55:41.745Z,322.42
2022-11-20T07:56:41.745Z,319.60
2022-11-20T07:57:41.732Z,320.85
2022-11-20T07:58:41.883Z,321.16
2022-11-20T07:59:41.694Z,318.05
2022-11-20T08:00:41.741Z,318.98
2022-11-20T08:01:41.692Z,316.82
2022-11-20T08:02:41.713Z,325.30
2022-11-20T08:03:41.657Z,317.13
2022-11-20T08:04:41.812Z,319.91
2022-11-20T08:05:41.644Z,319.29
2022-11-20T08:06:41.634Z,320.85
2022-11-20T08:07:41.753Z,314.39
2022-11-20T08:08:43.053Z,320.54
2022-11-20T08:09:41.622Z,314.69
2022-11-20T08:10:41.745Z,319.91
2022-11-20T08:11:41.585Z,315.00
2022-11-20T08:12:41.582Z,318.98
2022-11-20T08:13:41.560Z,315.00
2022-11-20T08:14:41.546Z,315.00
2022-11-20T08:15:41.700Z,315.00
2022-11-20T08:16:41.545Z,313.49
2022-11-20T08:17:41.513Z,313.19
2022-11-20T08:18:41.500Z,313.19
2022-11-20T08:19:41.489Z,310.82
2022-11-20T08:20:41.492Z,309.64
2022-11-20T08:21:41.647Z,311.41
2022-11-20T08:22:41.458Z,310.52
2022-11-20T08:23:41.447Z,310.23
2022-11-20T08:24:41.465Z,309.94
2022-11-20T08:25:41.423Z,308.48
2022-11-20T08:26:41.409Z,307.61
2022-11-20T08:27:41.557Z,307.04
2022-11-20T08:28:41.400Z,307.61
2022-11-20T08:29:41.395Z,306.46
2022-11-20T08:30:41.372Z,305.04
2022-11-20T08:31:41.358Z,306.18
2022-11-20T08:32:41.346Z,306.18
2022-11-20T08:33:41.501Z,305.61
2022-11-20T08:34:41.324Z,306.18
2022-11-20T08:35:41.315Z,307.61
2022-11-20T08:36:41.306Z,306.75
2022-11-20T08:37:41.297Z,308.19
2022-11-20T08:38:41.483Z,311.41
2022-11-20T08:39:41.275Z,309.94
2022-11-20T08:40:41.269Z,311.11
2022-11-20T08:41:41.268Z,313.49
2022-11-20T08:42:41.249Z,314.39
2022-11-20T08:43:41.235Z,313.79
2022-11-20T08:44:41.374Z,313.19
2022-11-20T08:45:41.207Z,316.21
2022-11-20T08:46:41.208Z,314.69
2022-11-20T08:47:41.184Z,317.43
2022-11-20T08:48:41.184Z,315.90
2022-11-20T08:49:41.361Z,318.36
2022-11-20T08:50:41.160Z,319.29
2022-11-20T08:51:41.144Z,318.36
2022-11-20T08:52:41.140Z,319.60
2022-11-20T08:53:41.123Z,323.70
2022-11-20T08:54:41.113Z,324.66
2022-11-20T08:55:41.262Z,323.70
2022-11-20T08:56:41.108Z,323.38
2022-11-20T08:57:41.080Z,323.38
2022-11-20T08:59:09.878Z,323.38
2022-11-20T09:00:04.946Z,322.74
2022-11-20T09:00:42.258Z,324.98
2022-11-20T09:01:41.042Z,322.74
2022-11-20T09:02:41.215Z,322.11
2022-11-20T09:03:41.016Z,322.74
2022-11-20T09:04:41.001Z,323.06
2022-11-20T09:05:40.996Z,322.74
2022-11-20T09:06:40.992Z,325.30
2022-11-20T09:07:41.529Z,323.06
2022-11-20T09:08:40.957Z,324.98
2022-11-20T09:09:40.950Z,325.30
2022-11-20T09:10:40.943Z,326.27
2022-11-20T09:11:40.934Z,326.27
2022-11-20T09:12:40.923Z,323.70
2022-11-20T09:13:41.080Z,324.02
2022-11-20T09:14:40.908Z,323.38
2022-11-20T09:15:41.043Z,323.06
2022-11-20T09:16:40.880Z,321.79
2022-11-20T09:17:40.870Z,322.74
2022-11-20T09:18:40.856Z,321.48
2022-11-20T09:19:41.082Z,322.74
2022-11-20T09:20:41.009Z,324.34
2022-11-20T09:21:40.815Z,325.62
2022-11-20T09:22:40.807Z,326.27
2022-11-20T09:23:40.894Z,330.21
2022-11-20T09:24:40.795Z,328.89
2022-11-20T09:25:40.947Z,330.88
2022-11-20T09:26:40.775Z,335.27
2022-11-20T09:27:40.756Z,333.57
2022-11-20T09:28:40.753Z,334.93
2022-11-20T09:29:40.739Z,336.30
2022-11-20T09:30:40.736Z,335.27
2022-11-20T09:31:40.873Z,335.27
2022-11-20T09:32:40.713Z,336.99
2022-11-20T09:33:40.868Z,339.79
2022-11-20T09:34:40.692Z,336.99
2022-11-20T09:35:40.671Z,336.30
2022-11-20T09:36:40.910Z,336.99
2022-11-20T09:37:40.643Z,336.30
2022-11-20T09:38:40.660Z,340.49
2022-11-20T09:39:40.628Z,339.08
2022-11-20T09:40:40.629Z,342.27
2022-11-20T09:41:40.611Z,342.98
2022-11-20T09:42:40.790Z,342.62
2022-11-20T09:43:42.561Z,340.49
2022-11-20T09:44:40.598Z,343.34
2022-11-20T09:45:40.562Z,342.27
2022-11-20T09:46:40.551Z,340.49
2022-11-20T09:47:41.681Z,338.04
2022-11-20T09:48:40.527Z,339.43
2022-11-20T09:49:40.520Z,336.65
2022-11-20T09:50:40.519Z,336.99
2022-11-20T09:51:40.508Z,339.08
2022-11-20T09:52:40.490Z,339.43
2022-11-20T09:53:40.646Z,341.55
2022-11-20T09:54:40.475Z,339.08
2022-11-20T09:55:40.460Z,336.65
2022-11-20T09:56:40.453Z,339.43
2022-11-20T09:57:40.429Z,336.65
2022-11-20T09:58:40.652Z,338.73
2022-11-20T09:59:40.423Z,339.43
2022-11-20T10:00:40.422Z,340.14
2022-11-20T10:01:40.392Z,338.39
2022-11-20T10:02:40.383Z,338.73
2022-11-20T10:03:40.369Z,338.39
2022-11-20T10:04:40.919Z,335.96
2022-11-20T10:05:40.528Z,335.62
2022-11-20T10:06:40.337Z,335.27
2022-11-20T10:07:40.362Z,337.34
2022-11-20T10:08:40.306Z,336.65
2022-11-20T10:09:40.307Z,336.30
2022-11-20T10:10:43.742Z,335.27
2022-11-20T10:11:40.276Z,338.73
2022-11-20T10:12:40.280Z,339.08
2022-11-20T10:13:40.255Z,345.88
2022-11-20T10:14:40.247Z,343.34
2022-11-20T10:15:40.235Z,344.06
2022-11-20T10:16:41.369Z,344.79
2022-11-20T10:17:40.220Z,347.71
2022-11-20T10:18:40.205Z,349.93
2022-11-20T10:19:40.204Z,346.97
2022-11-20T10:20:40.189Z,348.82
2022-11-20T10:21:40.354Z,348.82
2022-11-20T10:22:40.169Z,349.19
2022-11-20T10:23:40.160Z,348.82
2022-11-20T10:24:40.143Z,347.34
2022-11-20T10:25:40.137Z,347.34
2022-11-20T10:26:40.124Z,344.79
2022-11-20T10:27:40.293Z,346.24
2022-11-20T10:28:40.104Z,346.24
2022-11-20T10:29:40.085Z,347.71
2022-11-20T10:30:40.137Z,348.08
2022-11-20T10:31:40.263Z,348.45
2022-11-20T10:32:40.193Z,346.97
2022-11-20T10:34:05.128Z,346.24
2022-11-20T10:34:41.044Z,346.61
2022-11-20T10:35:40.032Z,348.45
2022-11-20T10:36:40.012Z,347.34
2022-11-20T10:37:40.166Z,348.08
2022-11-20T10:38:40.010Z,347.71
2022-11-20T10:39:39.981Z,349.19
2022-11-20T10:40:39.978Z,351.06
2022-11-20T10:41:39.974Z,348.08
2022-11-20T10:42:40.117Z,349.56
2022-11-20T10:43:39.931Z,351.43
2022-11-20T10:44:39.936Z,347.34
2022-11-20T10:45:39.920Z,344.42
2022-11-20T10:46:39.909Z,341.55
2022-11-20T10:47:40.069Z,338.73
2022-11-20T10:48:39.894Z,339.43
2022-11-20T10:49:39.901Z,336.99
2022-11-20T10:50:39.876Z,340.14
2022-11-20T10:51:39.857Z,343.70
2022-11-20T10:52:40.040Z,341.91
2022-11-20T10:53:39.842Z,344.06
2022-11-20T10:54:39.827Z,341.91
2022-11-20T10:55:39.812Z,349.19
2022-11-20T10:56:39.806Z,349.93
2022-11-20T10:57:39.801Z,352.19
2022-11-20T10:58:39.993Z,351.81
2022-11-20T10:59:39.932Z,353.33
2022-11-20T11:00:39.804Z,353.33
2022-11-20T11:01:39.746Z,350.31
2022-11-20T11:02:39.743Z,343.34
2022-11-20T11:03:39.727Z,339.08
2022-11-20T11:04:39.898Z,343.34
2022-11-20T11:05:39.706Z,344.79
2022-11-20T11:06:39.699Z,348.82
2022-11-20T11:07:39.722Z,347.34
2022-11-20T11:08:39.669Z,350.68
2022-11-20T11:09:39.665Z,353.71
2022-11-20T11:10:39.827Z,351.43
2022-11-20T11:11:39.650Z,352.95
2022-11-20T11:12:39.626Z,356.01
2022-11-20T11:13:39.620Z,355.24
2022-11-20T11:14:39.616Z,355.24
2022-11-20T11:15:39.791Z,355.24
2022-11-20T11:16:39.778Z,357.17
2022-11-20T11:17:39.586Z,358.73
2022-11-20T11:18:39.565Z,357.17
2022-11-20T11:19:39.558Z,356.01
2022-11-20T11:20:39.559Z,356.78
2022-11-20T11:21:39.704Z,354.85
2022-11-20T11:22:39.526Z,356.01
2022-11-20T11:23:39.507Z,353.33
2022-11-20T11:24:42.869Z,354.47
2022-11-20T11:25:39.494Z,353.71
2022-11-20T11:26:39.668Z,352.95
2022-11-20T11:27:39.474Z,353.33
2022-11-20T11:28:39.458Z,354.85
2022-11-20T11:29:39.448Z,356.01
2022-11-20T11:30:39.434Z,356.01
2022-11-20T11:31:39.427Z,356.01
2022-11-20T11:32:39.595Z,354.47
2022-11-20T11:33:39.399Z,357.56
2022-11-20T11:34:39.405Z,352.95
2022-11-20T11:35:39.385Z,352.95
2022-11-20T11:36:39.387Z,353.71
2022-11-20T11:37:39.360Z,353.71
2022-11-20T11:38:39.516Z,355.24
2022-11-20T11:39:39.344Z,356.01
2022-11-20T11:40:39.339Z,356.78
2022-11-20T11:41:39.321Z,356.01
2022-11-20T11:42:39.485Z,357.95
2022-11-20T11:43:39.295Z,358.73
2022-11-20T11:44:39.295Z,357.95
2022-11-20T11:45:39.279Z,359.52
2022-11-20T11:46:39.260Z,358.34
2022-11-20T11:47:39.261Z,357.17
2022-11-20T11:48:39.399Z,358.34
2022-11-20T11:49:39.232Z,361.50
2022-11-20T11:50:39.221Z,361.10
2022-11-20T11:51:39.222Z,361.50
2022-11-20T11:52:39.204Z,362.30
2022-11-20T11:53:39.370Z,363.50
2022-11-20T11:54:39.194Z,359.52
2022-11-20T11:55:39.204Z,361.10
2022-11-20T11:56:39.157Z,359.52
2022-11-20T11:57:39.141Z,361.10
2022-11-20T11:58:39.138Z,363.10
2022-11-20T11:59:39.286Z,359.91
2022-11-20T12:00:39.118Z,360.70
2022-11-20T12:01:39.117Z,361.90
2022-11-20T12:02:39.149Z,360.70
2022-11-20T12:03:39.077Z,361.50
2022-11-20T12:04:39.250Z,358.73
2022-11-20T12:05:39.066Z,357.95
2022-11-20T12:06:39.049Z,361.50
2022-11-20T12:07:46.666Z,361.50
2022-11-20T12:08:40.089Z,359.13
2022-11-20T12:09:39.196Z,362.70
2022-11-20T12:10:39.007Z,359.91
2022-11-20T12:11:38.998Z,359.91
2022-11-20T12:12:38.989Z,363.50
2022-11-20T12:13:38.981Z,365.53
2022-11-20T12:14:38.967Z,363.90
2022-11-20T12:15:39.109Z,363.90
2022-11-20T12:16:38.947Z,361.90
2022-11-20T12:17:38.935Z,365.12
2022-11-20T12:18:38.950Z,363.10
2022-11-20T12:19:38.912Z,361.50
2022-11-20T12:20:38.913Z,364.31
2022-11-20T12:21:39.360Z,361.50
2022-11-20T12:22:38.874Z,361.90
2022-11-20T12:23:38.869Z,359.13
2022-11-20T12:24:38.859Z,362.30
2022-11-20T12:25:38.875Z,362.70
2022-11-20T12:26:38.834Z,362.70
2022-11-20T12:27:39.004Z,361.10
2022-11-20T12:28:38.818Z,364.71
2022-11-20T12:29:39.033Z,361.90
2022-11-20T12:30:38.795Z,359.52